createdAt,value
2023-01-27T00:02:10.024Z,19.4
2023-01-27T00:07:16.332Z,19.4
2023-01-27T00:12:22.696Z,19.4
2023-01-27T00:22:38.696Z,19.4
2023-01-27T00:27:44.957Z,19.4
2023-01-27T00:32:52.926Z,19.4
2023-01-27T00:37:59.266Z,19.3
2023-01-27T00:43:05.614Z,19.3
2023-01-27T00:48:11.997Z,19.3
2023-01-27T00:53:18.365Z,19.3
2023-01-27T00:58:24.686Z,19.3
2023-01-27T01:03:31.021Z,19.3
2023-01-27T01:08:37.435Z,19.3
2023-01-27T01:13:43.849Z,19.3
2023-01-27T01:23:58.155Z,19.3
2023-01-27T01:29:04.416Z,19.3
2023-01-27T01:34:10.758Z,19.3
2023-01-27T01:39:17.154Z,19.3
2023-01-27T01:44:23.477Z,19.3
2023-01-27T01:49:29.833Z,19.3
2023-01-27T01:54:36.229Z,19.3
2023-01-27T01:59:42.555Z,19.3
2023-01-27T02:04:48.901Z,19.3
2023-01-27T02:09:55.286Z,19.3
2023-01-27T02:15:01.641Z,19.3
2023-01-27T02:20:07.974Z,19.3
2023-01-27T02:25:14.779Z,19.3
2023-01-27T02:30:20.673Z,19.3
2023-01-27T02:35:27.043Z,19.3
2023-01-27T02:40:33.424Z,19.3
2023-01-27T02:45:39.754Z,19.3
2023-01-27T02:50:46.161Z,19.3
2023-01-27T02:55:54.080Z,19.3
2023-01-27T03:01:00.411Z,19.3
2023-01-27T03:06:06.775Z,19.3
2023-01-27T03:11:13.170Z,19.3
2023-01-27T03:16:19.480Z,19.2
2023-01-27T03:21:25.852Z,19.2
2023-01-27T03:26:32.216Z,19.2
2023-01-27T03:31:38.664Z,19.2
2023-01-27T03:36:44.901Z,19.2
2023-01-27T03:41:51.307Z,19.2
2023-01-27T03:46:57.620Z,19.2
2023-01-27T03:52:03.970Z,19.2
2023-01-27T03:57:10.350Z,19.2
2023-01-27T04:02:16.685Z,19.2
2023-01-27T04:07:24.638Z,19.2
2023-01-27T04:12:32.637Z,19.2
2023-01-27T04:17:40.555Z,19.2
2023-01-27T04:22:48.507Z,19.2
2023-01-27T04:27:54.892Z,19.2
2023-01-27T04:33:01.264Z,19.2
2023-01-27T04:38:07.619Z,19.2
2023-01-27T04:43:15.567Z,19.2
2023-01-27T04:48:21.915Z,19.2
2023-01-27T04:53:28.264Z,19.1
2023-01-27T04:58:34.663Z,19.1
2023-01-27T05:03:40.963Z,19
2023-01-27T05:08:48.928Z,19
2023-01-27T05:13:55.323Z,19
2023-01-27T05:24:09.618Z,18.9
2023-01-27T05:34:23.939Z,18.9
2023-01-27T05:39:30.249Z,19
2023-01-27T05:49:44.601Z,19.2
2023-01-27T05:54:51.588Z,19.3
2023-01-27T05:59:57.268Z,19.4
2023-01-27T06:05:03.692Z,19.5
2023-01-27T06:10:09.974Z,19.6
2023-01-27T06:15:16.365Z,19.7
2023-01-27T06:20:22.734Z,19.7
2023-01-27T06:25:29.080Z,19.8
2023-01-27T06:30:35.418Z,19.9
2023-01-27T06:35:41.783Z,19.9
2023-01-27T06:40:48.137Z,19.9
2023-01-27T06:45:54.576Z,20
2023-01-27T06:51:01.308Z,20
2023-01-27T06:56:07.214Z,20
2023-01-27T07:01:13.649Z,20
2023-01-27T07:06:19.947Z,19.9
2023-01-27T07:11:26.291Z,20
2023-01-27T07:16:32.716Z,20
2023-01-27T07:21:39.003Z,20
2023-01-27T07:26:45.330Z,20
2023-01-27T07:31:51.785Z,19.9
2023-01-27T07:36:58.054Z,19.9
2023-01-27T07:42:05.993Z,20
2023-01-27T07:47:12.379Z,20
2023-01-27T07:52:18.734Z,20.1
2023-01-27T07:57:25.073Z,20.1
2023-01-27T08:02:33.020Z,20.2
2023-01-27T08:07:41.003Z,20.2
2023-01-27T08:12:49.021Z,20.3
2023-01-27T08:17:57.041Z,20.3
2023-01-27T08:23:04.863Z,20.3
2023-01-27T08:28:12.815Z,20.3
2023-01-27T08:33:20.753Z,20.3
2023-01-27T08:38:28.741Z,20.3
2023-01-27T08:43:36.679Z,20.3
2023-01-27T08:48:43.025Z,20.3
2023-01-27T08:53:49.449Z,20.3
2023-01-27T08:58:55.766Z,20.3
2023-01-27T09:04:02.119Z,20.3
2023-01-27T09:09:10.982Z,20.3
2023-01-27T09:14:14.834Z,20.3
2023-01-27T09:19:21.173Z,20.3
2023-01-27T09:24:27.625Z,20.3
2023-01-27T09:29:33.882Z,20.3
2023-01-27T09:34:40.238Z,20.3
2023-01-27T09:39:46.613Z,20.3
2023-01-27T09:44:52.966Z,20.3
2023-01-27T09:49:59.323Z,20.4
2023-01-27T09:55:05.673Z,20.4
2023-01-27T10:00:12.353Z,20.4
2023-01-27T10:05:18.369Z,20.5
2023-01-27T10:10:24.785Z,20.5
2023-01-27T10:15:31.101Z,20.5
2023-01-27T10:20:37.443Z,20.5
2023-01-27T10:25:43.827Z,20.5
2023-01-27T10:30:50.216Z,20.5
2023-01-27T10:35:58.108Z,20.5
2023-01-27T10:41:04.480Z,20.5
2023-01-27T10:46:10.813Z,20.5
2023-01-27T10:56:25.163Z,20.4
2023-01-27T11:01:31.553Z,20.4
2023-01-27T11:06:37.845Z,20.4
2023-01-27T11:11:44.227Z,20.3
2023-01-27T11:16:50.624Z,20.3
2023-01-27T11:22:07.190Z,20.2
2023-01-27T11:32:11.276Z,20.1
2023-01-27T11:37:17.580Z,20.1
2023-01-27T11:47:31.923Z,20
2023-01-27T11:52:38.239Z,19.9
2023-01-27T11:57:44.578Z,19.9
2023-01-27T12:02:50.975Z,19.9
2023-01-27T12:07:57.342Z,19.9
2023-01-27T12:13:03.659Z,19.9
2023-01-27T12:18:10.042Z,19.9
2023-01-27T12:23:17.978Z,19.9
2023-01-27T12:33:33.935Z,19.9
2023-01-27T12:38:41.828Z,19.9
2023-01-27T12:43:49.814Z,19.9
2023-01-27T12:48:57.785Z,19.9
2023-01-27T12:59:13.690Z,19.9
2023-01-27T13:04:20.057Z,19.9
2023-01-27T13:09:26.389Z,19.8
2023-01-27T13:14:32.781Z,19.8
2023-01-27T13:29:55.033Z,19.8
2023-01-27T13:35:02.996Z,19.8
2023-01-27T13:40:09.358Z,19.8
2023-01-27T13:45:15.712Z,19.8
2023-01-27T13:50:22.049Z,19.8
2023-01-27T13:55:28.402Z,19.8
2023-01-27T14:05:42.760Z,19.8
2023-01-27T14:10:49.071Z,19.8
2023-01-27T14:15:55.427Z,19.7
2023-01-27T14:21:01.799Z,19.7
2023-01-27T14:26:08.123Z,19.7
2023-01-27T14:31:14.670Z,19.7
2023-01-27T14:36:20.860Z,19.7
2023-01-27T14:41:28.796Z,19.7
2023-01-27T14:46:35.220Z,19.7
2023-01-27T14:51:43.124Z,19.7
2023-01-27T14:56:49.447Z,19.7
2023-01-27T15:01:55.895Z,19.7
2023-01-27T15:07:02.199Z,19.7
2023-01-27T15:12:08.523Z,19.7
2023-01-27T15:17:14.892Z,19.7
2023-01-27T15:22:21.323Z,19.7
2023-01-27T15:27:27.613Z,19.7
2023-01-27T15:32:34.097Z,19.7
2023-01-27T15:37:40.305Z,19.7
2023-01-27T15:42:46.663Z,19.7
2023-01-27T15:47:53.014Z,19.7
2023-01-27T15:52:59.407Z,19.7
2023-01-27T15:58:05.735Z,19.7
2023-01-27T16:03:12.092Z,19.7
2023-01-27T16:08:18.464Z,19.7
2023-01-27T16:13:26.416Z,19.7
2023-01-27T16:18:34.355Z,19.7
2023-01-27T16:23:42.345Z,19.7
2023-01-27T16:28:50.291Z,19.7
2023-01-27T16:33:58.232Z,19.7
2023-01-27T16:39:06.971Z,19.7
2023-01-27T16:44:14.189Z,19.8
2023-01-27T16:49:22.112Z,19.8
2023-01-27T16:54:30.072Z,19.8
2023-01-27T16:59:38.032Z,19.8
2023-01-27T17:04:45.980Z,19.8
2023-01-27T17:09:54.035Z,19.8
2023-01-27T17:15:01.910Z,19.8
2023-01-27T17:20:08.525Z,19.8
2023-01-27T17:25:14.915Z,19.8
2023-01-27T17:30:20.961Z,19.8
2023-01-27T17:35:28.929Z,19.8
2023-01-27T17:40:35.312Z,19.8
2023-01-27T17:45:41.642Z,19.8
2023-01-27T17:50:48.006Z,19.8
2023-01-27T17:55:54.378Z,19.7
2023-01-27T18:01:00.691Z,19.8
2023-01-27T18:06:07.052Z,19.8
2023-01-27T18:11:13.456Z,19.8
2023-01-27T18:16:19.861Z,19.8
2023-01-27T18:21:26.118Z,19.8
2023-01-27T18:26:32.509Z,19.8
2023-01-27T18:31:38.887Z,19.8
2023-01-27T18:36:45.200Z,19.8
2023-01-27T18:41:51.577Z,19.8
2023-01-27T18:46:57.958Z,19.8
2023-01-27T18:52:04.260Z,19.8
2023-01-27T18:57:10.653Z,19.8
2023-01-27T19:02:17.064Z,19.8
2023-01-27T19:07:23.341Z,19.8
2023-01-27T19:12:29.731Z,19.8
2023-01-27T19:17:36.047Z,19.8
2023-01-27T19:22:42.405Z,19.8
2023-01-27T19:27:48.781Z,19.8
2023-01-27T19:32:55.120Z,19.8
2023-01-27T19:38:01.478Z,19.8
2023-01-27T19:43:07.867Z,19.8
2023-01-27T19:48:14.186Z,19.8
2023-01-27T19:53:20.591Z,19.8
2023-01-27T19:58:26.939Z,19.8
2023-01-27T20:03:33.238Z,19.8
2023-01-27T20:08:39.665Z,19.7
2023-01-27T20:13:47.593Z,19.7
2023-01-27T20:18:55.534Z,19.7
2023-01-27T20:24:03.563Z,19.8
2023-01-27T20:29:11.464Z,19.7
2023-01-27T20:34:19.401Z,19.8
2023-01-27T20:39:27.366Z,19.7
2023-01-27T20:44:35.330Z,19.7
2023-01-27T20:49:43.277Z,19.7
2023-01-27T20:54:51.234Z,19.7
2023-01-27T20:59:59.239Z,19.7
2023-01-27T21:05:07.159Z,19.7
2023-01-27T21:10:15.155Z,19.7
2023-01-27T21:15:23.111Z,19.7
2023-01-27T21:20:31.009Z,19.7
2023-01-27T21:25:38.982Z,19.7
2023-01-27T21:30:47.031Z,19.7
2023-01-27T21:35:53.298Z,19.7
2023-01-27T21:40:59.676Z,19.7
2023-01-27T21:46:06.071Z,19.7
2023-01-27T21:51:12.387Z,19.7
2023-01-27T21:56:18.733Z,19.7
2023-01-27T22:01:25.219Z,19.7
2023-01-27T22:06:31.460Z,19.7
2023-01-27T22:11:37.825Z,19.7
2023-01-27T22:16:44.286Z,19.7
2023-01-27T22:21:50.534Z,19.7
2023-01-27T22:26:56.885Z,19.7
2023-01-27T22:32:03.273Z,19.7
2023-01-27T22:37:09.578Z,19.6
2023-01-27T22:42:15.942Z,19.6
2023-01-27T22:47:22.321Z,19.5
2023-01-27T22:52:28.666Z,19.5
2023-01-27T22:57:35.015Z,19.5
2023-01-27T23:02:41.491Z,19.5
2023-01-27T23:07:47.746Z,19.5
2023-01-27T23:12:54.089Z,19.5
2023-01-27T23:18:00.460Z,19.5
2023-01-27T23:23:06.806Z,19.5
2023-01-27T23:28:13.152Z,19.5
2023-01-27T23:33:19.534Z,19.5
2023-01-27T23:38:32.620Z,19.5
2023-01-27T23:43:32.226Z,19.6
2023-01-27T23:48:40.189Z,19.6
2023-01-27T23:53:46.521Z,19.6
2023-01-27T23:58:52.880Z,19.5
